sensor_id;sensor_type;location;lat;lon;timestamp;P1;P2;P0
86389;PMS7003;77034;44.794;20.518;2024-03-22T00:01:46;73.25;56.75;36.50
86389;PMS7003;77034;44.794;20.518;2024-03-22T00:04:12;75.25;55.50;35.25
86389;PMS7003;77034;44.794;20.518;2024-03-22T00:06:38;75.25;58.75;36.50
86389;PMS7003;77034;44.794;20.518;2024-03-22T00:09:05;71.75;56.75;35.25
86389;PMS7003;77034;44.794;20.518;2024-03-22T00:11:30;75.00;56.00;36.00
86389;PMS7003;77034;44.794;20.518;2024-03-22T00:13:56;78.00;60.75;36.75
86389;PMS7003;77034;44.794;20.518;2024-03-22T00:16:22;80.75;63.25;38.00
86389;PMS7003;77034;44.794;20.518;2024-03-22T00:18:48;87.50;73.00;39.50
86389;PMS7003;77034;44.794;20.518;2024-03-22T00:21:13;88.25;69.25;40.25
86389;PMS7003;77034;44.794;20.518;2024-03-22T00:23:39;87.50;68.25;39.25
86389;PMS7003;77034;44.794;20.518;2024-03-22T00:26:04;84.50;67.75;40.00
86389;PMS7003;77034;44.794;20.518;2024-03-22T00:28:30;79.50;59.50;37.00
86389;PMS7003;77034;44.794;20.518;2024-03-22T00:30:56;78.25;59.25;37.75
86389;PMS7003;77034;44.794;20.518;2024-03-22T00:33:21;82.50;65.00;39.25
86389;PMS7003;77034;44.794;20.518;2024-03-22T00:35:47;77.75;61.25;39.50
86389;PMS7003;77034;44.794;20.518;2024-03-22T00:38:12;85.50;66.50;38.25
86389;PMS7003;77034;44.794;20.518;2024-03-22T00:40:38;54.50;45.75;36.00
86389;PMS7003;77034;44.794;20.518;2024-03-22T00:43:03;77.75;56.25;35.00
86389;PMS7003;77034;44.794;20.518;2024-03-22T00:45:29;78.25;63.00;38.25
86389;PMS7003;77034;44.794;20.518;2024-03-22T00:47:55;77.50;58.25;36.00
86389;PMS7003;77034;44.794;20.518;2024-03-22T00:50:20;71.50;55.50;32.75
86389;PMS7003;77034;44.794;20.518;2024-03-22T00:52:46;79.25;60.00;36.25
86389;PMS7003;77034;44.794;20.518;2024-03-22T00:55:11;75.25;58.00;35.75
86389;PMS7003;77034;44.794;20.518;2024-03-22T00:57:37;81.00;58.25;35.00
86389;PMS7003;77034;44.794;20.518;2024-03-22T01:00:02;83.75;61.50;38.00
86389;PMS7003;77034;44.794;20.518;2024-03-22T01:02:29;76.25;60.00;37.00
86389;PMS7003;77034;44.794;20.518;2024-03-22T01:04:55;79.75;61.00;38.50
86389;PMS7003;77034;44.794;20.518;2024-03-22T01:07:21;77.25;57.00;38.00
86389;PMS7003;77034;44.794;20.518;2024-03-22T01:09:46;78.75;60.75;37.50
86389;PMS7003;77034;44.794;20.518;2024-03-22T01:12:12;86.75;64.25;39.75
86389;PMS7003;77034;44.794;20.518;2024-03-22T01:14:37;86.75;64.00;38.75
86389;PMS7003;77034;44.794;20.518;2024-03-22T01:17:03;85.00;62.75;37.25
86389;PMS7003;77034;44.794;20.518;2024-03-22T01:19:29;81.25;59.50;34.75
86389;PMS7003;77034;44.794;20.518;2024-03-22T01:21:54;74.75;59.25;37.50
86389;PMS7003;77034;44.794;20.518;2024-03-22T01:24:20;79.25;60.75;38.00
86389;PMS7003;77034;44.794;20.518;2024-03-22T01:26:45;82.50;63.75;38.75
86389;PMS7003;77034;44.794;20.518;2024-03-22T01:29:11;84.00;61.75;39.00
86389;PMS7003;77034;44.794;20.518;2024-03-22T01:31:39;85.50;65.00;40.25
86389;PMS7003;77034;44.794;20.518;2024-03-22T01:34:04;79.50;60.75;38.00
86389;PMS7003;77034;44.794;20.518;2024-03-22T01:36:30;81.00;61.00;38.00
86389;PMS7003;77034;44.794;20.518;2024-03-22T01:38:56;76.50;59.50;38.00
86389;PMS7003;77034;44.794;20.518;2024-03-22T01:41:22;80.00;63.00;36.75
86389;PMS7003;77034;44.794;20.518;2024-03-22T01:43:48;82.25;66.00;39.00
86389;PMS7003;77034;44.794;20.518;2024-03-22T01:46:14;80.00;60.00;37.25
86389;PMS7003;77034;44.794;20.518;2024-03-22T01:48:39;81.50;62.75;38.25
86389;PMS7003;77034;44.794;20.518;2024-03-22T01:51:05;86.75;66.00;38.75
86389;PMS7003;77034;44.794;20.518;2024-03-22T01:53:32;79.75;59.00;35.25
86389;PMS7003;77034;44.794;20.518;2024-03-22T01:55:59;80.75;61.50;39.00
86389;PMS7003;77034;44.794;20.518;2024-03-22T01:58:25;78.25;58.50;36.00
86389;PMS7003;77034;44.794;20.518;2024-03-22T02:00:51;63.25;47.25;29.25
86389;PMS7003;77034;44.794;20.518;2024-03-22T02:03:17;62.50;49.50;30.25
86389;PMS7003;77034;44.794;20.518;2024-03-22T02:05:42;70.75;53.00;32.25
86389;PMS7003;77034;44.794;20.518;2024-03-22T02:08:08;75.00;56.75;31.50
86389;PMS7003;77034;44.794;20.518;2024-03-22T02:10:33;91.50;75.75;43.75
86389;PMS7003;77034;44.794;20.518;2024-03-22T02:12:59;86.50;67.00;39.00
86389;PMS7003;77034;44.794;20.518;2024-03-22T02:15:25;90.25;70.25;41.75
86389;PMS7003;77034;44.794;20.518;2024-03-22T02:17:50;96.50;76.75;41.00
86389;PMS7003;77034;44.794;20.518;2024-03-22T02:20:16;94.75;77.00;45.00
86389;PMS7003;77034;44.794;20.518;2024-03-22T02:22:42;64.25;49.25;24.00
86389;PMS7003;77034;44.794;20.518;2024-03-22T02:25:07;93.25;70.75;43.50
86389;PMS7003;77034;44.794;20.518;2024-03-22T02:27:34;95.00;73.00;42.50
86389;PMS7003;77034;44.794;20.518;2024-03-22T02:30:00;93.25;72.50;43.25
86389;PMS7003;77034;44.794;20.518;2024-03-22T02:32:27;94.00;77.00;43.75
86389;PMS7003;77034;44.794;20.518;2024-03-22T02:34:53;88.50;68.25;41.00
86389;PMS7003;77034;44.794;20.518;2024-03-22T02:37:19;96.25;75.50;42.75
86389;PMS7003;77034;44.794;20.518;2024-03-22T02:39:44;90.25;73.25;42.00
86389;PMS7003;77034;44.794;20.518;2024-03-22T02:42:10;87.00;69.75;42.25
86389;PMS7003;77034;44.794;20.518;2024-03-22T02:44:35;88.75;69.00;42.25
86389;PMS7003;77034;44.794;20.518;2024-03-22T02:47:07;84.25;65.00;41.25
86389;PMS7003;77034;44.794;20.518;2024-03-22T02:49:33;85.50;67.00;40.50
86389;PMS7003;77034;44.794;20.518;2024-03-22T02:51:58;82.75;60.50;40.00
86389;PMS7003;77034;44.794;20.518;2024-03-22T02:54:24;89.50;69.50;41.75
86389;PMS7003;77034;44.794;20.518;2024-03-22T02:56:50;77.75;57.50;40.50
86389;PMS7003;77034;44.794;20.518;2024-03-22T02:59:15;82.00;61.75;39.00
86389;PMS7003;77034;44.794;20.518;2024-03-22T03:01:41;87.75;64.00;39.25
86389;PMS7003;77034;44.794;20.518;2024-03-22T03:04:06;83.25;62.00;39.25
86389;PMS7003;77034;44.794;20.518;2024-03-22T03:09:56;96.00;75.75;42.50
86389;PMS7003;77034;44.794;20.518;2024-03-22T03:12:22;89.00;68.75;42.50
86389;PMS7003;77034;44.794;20.518;2024-03-22T03:14:47;102.25;82.75;49.50
86389;PMS7003;77034;44.794;20.518;2024-03-22T03:17:13;89.75;66.25;41.75
86389;PMS7003;77034;44.794;20.518;2024-03-22T03:19:39;92.25;71.50;41.50
86389;PMS7003;77034;44.794;20.518;2024-03-22T03:22:04;88.00;72.50;40.75
86389;PMS7003;77034;44.794;20.518;2024-03-22T03:24:30;91.00;71.00;41.25
86389;PMS7003;77034;44.794;20.518;2024-03-22T03:26:56;88.50;65.75;40.00
86389;PMS7003;77034;44.794;20.518;2024-03-22T03:29:21;92.50;68.50;40.25
86389;PMS7003;77034;44.794;20.518;2024-03-22T03:31:47;84.75;63.00;39.75
86389;PMS7003;77034;44.794;20.518;2024-03-22T03:34:14;86.25;64.50;40.00
86389;PMS7003;77034;44.794;20.518;2024-03-22T03:36:40;82.75;62.50;38.00
86389;PMS7003;77034;44.794;20.518;2024-03-22T03:39:05;76.25;59.25;37.00
86389;PMS7003;77034;44.794;20.518;2024-03-22T03:41:31;76.50;57.25;33.00
86389;PMS7003;77034;44.794;20.518;2024-03-22T03:43:57;84.00;63.50;39.25
86389;PMS7003;77034;44.794;20.518;2024-03-22T03:46:22;87.00;64.75;40.00
86389;PMS7003;77034;44.794;20.518;2024-03-22T03:48:48;80.25;59.50;38.75
86389;PMS7003;77034;44.794;20.518;2024-03-22T03:51:13;83.75;62.00;38.25
86389;PMS7003;77034;44.794;20.518;2024-03-22T03:53:39;81.50;63.50;40.25
86389;PMS7003;77034;44.794;20.518;2024-03-22T03:56:04;80.75;61.75;39.00
86389;PMS7003;77034;44.794;20.518;2024-03-22T03:58:30;83.25;64.25;39.00
86389;PMS7003;77034;44.794;20.518;2024-03-22T04:00:56;87.75;66.00;40.25
86389;PMS7003;77034;44.794;20.518;2024-03-22T04:03:22;73.50;57.00;37.50
86389;PMS7003;77034;44.794;20.518;2024-03-22T04:05:55;85.00;65.75;39.25
86389;PMS7003;77034;44.794;20.518;2024-03-22T04:08:22;81.00;61.50;37.00
86389;PMS7003;77034;44.794;20.518;2024-03-22T04:10:54;87.50;65.50;39.50
86389;PMS7003;77034;44.794;20.518;2024-03-22T04:13:22;88.75;64.50;39.75
86389;PMS7003;77034;44.794;20.518;2024-03-22T04:15:51;79.75;61.00;37.25
86389;PMS7003;77034;44.794;20.518;2024-03-22T04:18:17;80.75;60.50;38.00
86389;PMS7003;77034;44.794;20.518;2024-03-22T04:20:42;79.00;59.25;37.25
86389;PMS7003;77034;44.794;20.518;2024-03-22T04:23:11;87.50;67.50;41.25
86389;PMS7003;77034;44.794;20.518;2024-03-22T04:25:36;88.25;67.00;40.00
86389;PMS7003;77034;44.794;20.518;2024-03-22T04:28:02;90.75;69.50;43.50
86389;PMS7003;77034;44.794;20.518;2024-03-22T04:30:28;85.75;64.50;39.25
86389;PMS7003;77034;44.794;20.518;2024-03-22T04:32:53;86.25;66.75;40.50
86389;PMS7003;77034;44.794;20.518;2024-03-22T04:35:19;80.25;63.00;39.75
86389;PMS7003;77034;44.794;20.518;2024-03-22T04:37:45;84.75;62.50;39.75
86389;PMS7003;77034;44.794;20.518;2024-03-22T04:40:10;85.00;62.50;37.00
86389;PMS7003;77034;44.794;20.518;2024-03-22T04:42:36;79.00;59.25;35.50
86389;PMS7003;77034;44.794;20.518;2024-03-22T04:45:02;71.25;55.50;34.75
86389;PMS7003;77034;44.794;20.518;2024-03-22T04:47:28;68.75;52.25;32.75
86389;PMS7003;77034;44.794;20.518;2024-03-22T04:49:53;77.50;56.25;34.00
86389;PMS7003;77034;44.794;20.518;2024-03-22T04:52:20;80.00;60.50;37.00
86389;PMS7003;77034;44.794;20.518;2024-03-22T04:54:45;75.00;56.00;34.25
86389;PMS7003;77034;44.794;20.518;2024-03-22T04:57:12;72.75;56.50;35.00
86389;PMS7003;77034;44.794;20.518;2024-03-22T04:59:38;74.25;57.25;35.50
86389;PMS7003;77034;44.794;20.518;2024-03-22T05:02:03;72.50;55.50;34.75
86389;PMS7003;77034;44.794;20.518;2024-03-22T05:04:29;65.00;52.50;32.25
86389;PMS7003;77034;44.794;20.518;2024-03-22T05:06:55;59.00;47.50;32.00
86389;PMS7003;77034;44.794;20.518;2024-03-22T05:09:20;71.50;56.50;34.25
86389;PMS7003;77034;44.794;20.518;2024-03-22T05:11:46;70.50;51.75;32.75
86389;PMS7003;77034;44.794;20.518;2024-03-22T05:14:15;66.00;48.50;25.50
86389;PMS7003;77034;44.794;20.518;2024-03-22T05:16:41;74.25;57.25;33.25
86389;PMS7003;77034;44.794;20.518;2024-03-22T05:19:07;65.00;51.25;32.50
86389;PMS7003;77034;44.794;20.518;2024-03-22T05:21:32;71.50;53.50;33.25
86389;PMS7003;77034;44.794;20.518;2024-03-22T05:23:58;77.75;58.00;36.00
86389;PMS7003;77034;44.794;20.518;2024-03-22T05:26:23;81.75;62.25;37.75
86389;PMS7003;77034;44.794;20.518;2024-03-22T05:28:49;78.00;61.00;34.00
86389;PMS7003;77034;44.794;20.518;2024-03-22T05:31:15;81.00;60.50;35.00
86389;PMS7003;77034;44.794;20.518;2024-03-22T05:33:40;72.50;57.75;34.25
86389;PMS7003;77034;44.794;20.518;2024-03-22T05:36:06;74.25;56.75;33.75
86389;PMS7003;77034;44.794;20.518;2024-03-22T05:38:32;74.00;56.50;34.75
86389;PMS7003;77034;44.794;20.518;2024-03-22T05:40:57;68.75;53.25;33.50
86389;PMS7003;77034;44.794;20.518;2024-03-22T05:43:23;69.25;54.00;31.25
86389;PMS7003;77034;44.794;20.518;2024-03-22T05:45:49;68.75;54.50;34.00
86389;PMS7003;77034;44.794;20.518;2024-03-22T05:48:14;73.00;58.00;35.50
86389;PMS7003;77034;44.794;20.518;2024-03-22T05:50:40;66.00;50.50;32.00
86389;PMS7003;77034;44.794;20.518;2024-03-22T05:53:06;65.75;49.50;32.00
86389;PMS7003;77034;44.794;20.518;2024-03-22T05:55:31;69.50;52.00;32.25
86389;PMS7003;77034;44.794;20.518;2024-03-22T05:57:57;52.50;43.50;27.25
86389;PMS7003;77034;44.794;20.518;2024-03-22T06:00:23;54.50;44.25;29.00
86389;PMS7003;77034;44.794;20.518;2024-03-22T06:02:48;57.75;47.00;28.75
86389;PMS7003;77034;44.794;20.518;2024-03-22T06:05:14;54.75;40.25;29.25
86389;PMS7003;77034;44.794;20.518;2024-03-22T06:07:40;56.50;46.75;29.75
86389;PMS7003;77034;44.794;20.518;2024-03-22T06:10:07;55.50;45.75;28.00
86389;PMS7003;77034;44.794;20.518;2024-03-22T06:12:35;55.75;44.00;26.25
86389;PMS7003;77034;44.794;20.518;2024-03-22T06:15:01;57.75;43.25;27.25
86389;PMS7003;77034;44.794;20.518;2024-03-22T06:17:26;53.50;45.25;28.50
86389;PMS7003;77034;44.794;20.518;2024-03-22T06:19:52;53.75;42.50;28.00
86389;PMS7003;77034;44.794;20.518;2024-03-22T06:22:17;55.00;44.50;28.50
86389;PMS7003;77034;44.794;20.518;2024-03-22T06:24:44;55.50;42.75;24.00
86389;PMS7003;77034;44.794;20.518;2024-03-22T06:27:10;58.00;45.25;28.00
86389;PMS7003;77034;44.794;20.518;2024-03-22T06:29:35;54.50;45.00;27.50
86389;PMS7003;77034;44.794;20.518;2024-03-22T06:32:01;56.75;45.00;29.00
86389;PMS7003;77034;44.794;20.518;2024-03-22T06:34:27;50.00;41.75;23.25
86389;PMS7003;77034;44.794;20.518;2024-03-22T06:36:54;54.25;43.50;27.75
86389;PMS7003;77034;44.794;20.518;2024-03-22T06:39:20;53.50;44.00;28.00
86389;PMS7003;77034;44.794;20.518;2024-03-22T06:41:46;44.25;32.00;14.75
86389;PMS7003;77034;44.794;20.518;2024-03-22T06:44:11;51.75;42.50;28.50
86389;PMS7003;77034;44.794;20.518;2024-03-22T06:46:39;52.50;41.75;27.50
86389;PMS7003;77034;44.794;20.518;2024-03-22T06:49:05;64.25;49.25;31.50
86389;PMS7003;77034;44.794;20.518;2024-03-22T06:51:30;69.50;53.75;34.75
86389;PMS7003;77034;44.794;20.518;2024-03-22T06:53:56;67.50;53.25;34.25
86389;PMS7003;77034;44.794;20.518;2024-03-22T06:56:21;67.75;54.75;35.75
86389;PMS7003;77034;44.794;20.518;2024-03-22T06:58:47;66.50;50.75;36.25
86389;PMS7003;77034;44.794;20.518;2024-03-22T07:01:13;67.00;55.25;36.50
86389;PMS7003;77034;44.794;20.518;2024-03-22T07:03:38;67.00;53.75;35.50
86389;PMS7003;77034;44.794;20.518;2024-03-22T07:06:04;67.75;53.00;35.00
86389;PMS7003;77034;44.794;20.518;2024-03-22T07:08:32;66.25;53.25;33.50
86389;PMS7003;77034;44.794;20.518;2024-03-22T07:10:59;63.25;48.75;32.25
86389;PMS7003;77034;44.794;20.518;2024-03-22T07:13:24;60.00;47.75;33.00
86389;PMS7003;77034;44.794;20.518;2024-03-22T07:15:50;64.50;49.75;32.50
86389;PMS7003;77034;44.794;20.518;2024-03-22T07:18:15;64.00;50.50;33.75
86389;PMS7003;77034;44.794;20.518;2024-03-22T07:20:41;61.50;49.25;33.25
86389;PMS7003;77034;44.794;20.518;2024-03-22T07:23:08;62.25;50.25;32.75
86389;PMS7003;77034;44.794;20.518;2024-03-22T07:25:33;64.75;53.25;36.50
86389;PMS7003;77034;44.794;20.518;2024-03-22T07:27:59;61.50;49.25;33.75
86389;PMS7003;77034;44.794;20.518;2024-03-22T07:30:25;62.00;49.00;32.50
86389;PMS7003;77034;44.794;20.518;2024-03-22T07:32:51;56.00;45.75;30.00
86389;PMS7003;77034;44.794;20.518;2024-03-22T07:35:19;56.50;45.75;32.00
86389;PMS7003;77034;44.794;20.518;2024-03-22T07:37:44;65.25;52.25;35.25
86389;PMS7003;77034;44.794;20.518;2024-03-22T07:40:10;67.75;54.50;35.75
86389;PMS7003;77034;44.794;20.518;2024-03-22T07:42:35;69.00;56.50;36.00
86389;PMS7003;77034;44.794;20.518;2024-03-22T07:45:01;63.75;50.25;31.75
86389;PMS7003;77034;44.794;20.518;2024-03-22T07:47:27;64.75;52.25;34.75
86389;PMS7003;77034;44.794;20.518;2024-03-22T07:49:53;63.75;51.25;32.50
86389;PMS7003;77034;44.794;20.518;2024-03-22T07:52:19;62.25;50.50;34.25
86389;PMS7003;77034;44.794;20.518;2024-03-22T07:54:45;62.75;49.50;32.75
86389;PMS7003;77034;44.794;20.518;2024-03-22T07:57:12;63.75;50.25;32.75
86389;PMS7003;77034;44.794;20.518;2024-03-22T07:59:37;58.50;47.00;30.50
86389;PMS7003;77034;44.794;20.518;2024-03-22T08:02:03;58.25;47.50;30.50
86389;PMS7003;77034;44.794;20.518;2024-03-22T08:04:32;62.00;47.75;32.50
86389;PMS7003;77034;44.794;20.518;2024-03-22T08:06:57;58.25;46.00;31.00
86389;PMS7003;77034;44.794;20.518;2024-03-22T08:09:23;60.50;48.25;32.50
86389;PMS7003;77034;44.794;20.518;2024-03-22T08:11:48;64.00;50.75;32.75
86389;PMS7003;77034;44.794;20.518;2024-03-22T08:14:14;61.00;49.50;33.25
86389;PMS7003;77034;44.794;20.518;2024-03-22T08:16:41;63.00;49.00;32.00
86389;PMS7003;77034;44.794;20.518;2024-03-22T08:19:07;63.75;51.50;34.00
86389;PMS7003;77034;44.794;20.518;2024-03-22T08:21:33;60.75;49.00;32.00
86389;PMS7003;77034;44.794;20.518;2024-03-22T08:23:59;61.00;49.50;34.25
86389;PMS7003;77034;44.794;20.518;2024-03-22T08:26:25;61.50;49.75;35.50
86389;PMS7003;77034;44.794;20.518;2024-03-22T08:28:50;58.75;46.75;31.75
86389;PMS7003;77034;44.794;20.518;2024-03-22T08:31:16;62.00;49.25;33.50
86389;PMS7003;77034;44.794;20.518;2024-03-22T08:33:42;61.25;49.50;31.75
86389;PMS7003;77034;44.794;20.518;2024-03-22T08:36:08;68.00;57.00;37.75
86389;PMS7003;77034;44.794;20.518;2024-03-22T08:38:33;64.25;50.50;35.00
86389;PMS7003;77034;44.794;20.518;2024-03-22T08:40:59;72.25;60.25;38.75
86389;PMS7003;77034;44.794;20.518;2024-03-22T08:43:25;69.00;55.25;36.75
86389;PMS7003;77034;44.794;20.518;2024-03-22T08:45:52;64.25;51.00;34.75
86389;PMS7003;77034;44.794;20.518;2024-03-22T08:48:18;74.50;60.00;39.00
86389;PMS7003;77034;44.794;20.518;2024-03-22T08:50:44;70.50;59.25;39.50
86389;PMS7003;77034;44.794;20.518;2024-03-22T08:53:10;72.25;57.50;35.50
86389;PMS7003;77034;44.794;20.518;2024-03-22T08:55:35;67.50;53.75;33.25
86389;PMS7003;77034;44.794;20.518;2024-03-22T08:58:01;67.25;55.25;33.25
86389;PMS7003;77034;44.794;20.518;2024-03-22T09:00:29;62.25;48.25;31.25
86389;PMS7003;77034;44.794;20.518;2024-03-22T09:02:54;65.00;51.25;34.00
86389;PMS7003;77034;44.794;20.518;2024-03-22T09:05:20;66.75;51.75;33.00
86389;PMS7003;77034;44.794;20.518;2024-03-22T09:07:46;69.75;52.50;33.00
86389;PMS7003;77034;44.794;20.518;2024-03-22T09:10:13;63.50;48.25;32.25
86389;PMS7003;77034;44.794;20.518;2024-03-22T09:12:39;61.25;49.00;30.00
86389;PMS7003;77034;44.794;20.518;2024-03-22T09:15:05;61.75;48.00;30.25
86389;PMS7003;77034;44.794;20.518;2024-03-22T09:17:31;59.50;46.25;30.25
86389;PMS7003;77034;44.794;20.518;2024-03-22T09:19:56;63.25;46.25;30.50
86389;PMS7003;77034;44.794;20.518;2024-03-22T09:22:22;59.00;46.00;29.50
86389;PMS7003;77034;44.794;20.518;2024-03-22T09:24:48;55.25;43.00;28.25
86389;PMS7003;77034;44.794;20.518;2024-03-22T09:27:13;44.25;34.00;23.00
86389;PMS7003;77034;44.794;20.518;2024-03-22T09:29:39;39.50;32.50;21.75
86389;PMS7003;77034;44.794;20.518;2024-03-22T09:32:05;44.75;36.25;24.25
86389;PMS7003;77034;44.794;20.518;2024-03-22T09:34:31;47.25;35.50;22.50
86389;PMS7003;77034;44.794;20.518;2024-03-22T09:36:58;51.50;39.00;24.25
86389;PMS7003;77034;44.794;20.518;2024-03-22T09:39:23;52.75;40.50;23.50
86389;PMS7003;77034;44.794;20.518;2024-03-22T09:41:50;45.75;37.50;23.25
86389;PMS7003;77034;44.794;20.518;2024-03-22T09:44:18;49.25;41.00;26.00
86389;PMS7003;77034;44.794;20.518;2024-03-22T09:46:44;47.00;35.50;23.50
86389;PMS7003;77034;44.794;20.518;2024-03-22T09:49:12;45.50;37.50;24.25
86389;PMS7003;77034;44.794;20.518;2024-03-22T09:51:39;48.25;38.75;24.00
86389;PMS7003;77034;44.794;20.518;2024-03-22T09:54:06;54.50;44.25;28.25
86389;PMS7003;77034;44.794;20.518;2024-03-22T09:56:32;29.00;27.50;12.00
86389;PMS7003;77034;44.794;20.518;2024-03-22T09:58:58;54.00;43.50;27.25
86389;PMS7003;77034;44.794;20.518;2024-03-22T10:01:24;53.00;42.00;27.00
86389;PMS7003;77034;44.794;20.518;2024-03-22T10:03:53;47.25;40.00;26.50
86389;PMS7003;77034;44.794;20.518;2024-03-22T10:06:20;53.25;44.25;28.25
86389;PMS7003;77034;44.794;20.518;2024-03-22T10:08:45;57.25;45.25;27.00
86389;PMS7003;77034;44.794;20.518;2024-03-22T10:11:11;53.75;43.75;28.00
86389;PMS7003;77034;44.794;20.518;2024-03-22T10:13:37;52.00;40.50;25.00
86389;PMS7003;77034;44.794;20.518;2024-03-22T10:16:03;49.25;41.25;26.50
86389;PMS7003;77034;44.794;20.518;2024-03-22T10:18:29;45.25;39.25;24.50
86389;PMS7003;77034;44.794;20.518;2024-03-22T10:21:03;44.25;36.50;23.25
86389;PMS7003;77034;44.794;20.518;2024-03-22T10:23:30;51.25;39.75;24.00
86389;PMS7003;77034;44.794;20.518;2024-03-22T10:25:57;48.75;41.50;24.25
86389;PMS7003;77034;44.794;20.518;2024-03-22T10:28:27;43.00;36.25;22.25
86389;PMS7003;77034;44.794;20.518;2024-03-22T10:30:53;35.25;31.75;21.00
86389;PMS7003;77034;44.794;20.518;2024-03-22T10:33:19;39.75;32.50;19.50
86389;PMS7003;77034;44.794;20.518;2024-03-22T10:35:57;31.25;25.75;16.50
86389;PMS7003;77034;44.794;20.518;2024-03-22T10:38:25;36.00;30.50;19.75
86389;PMS7003;77034;44.794;20.518;2024-03-22T10:40:52;25.75;22.50;14.50
86389;PMS7003;77034;44.794;20.518;2024-03-22T10:43:17;30.00;26.75;18.75
86389;PMS7003;77034;44.794;20.518;2024-03-22T10:45:43;36.50;32.00;19.50
86389;PMS7003;77034;44.794;20.518;2024-03-22T10:48:17;40.00;33.50;22.00
86389;PMS7003;77034;44.794;20.518;2024-03-22T10:50:45;26.00;23.50;14.50
86389;PMS7003;77034;44.794;20.518;2024-03-22T10:53:21;24.25;23.00;14.50
86389;PMS7003;77034;44.794;20.518;2024-03-22T10:55:49;22.25;20.00;13.25
86389;PMS7003;77034;44.794;20.518;2024-03-22T10:58:20;22.25;21.25;12.00
86389;PMS7003;77034;44.794;20.518;2024-03-22T11:00:47;26.75;24.75;12.75
86389;PMS7003;77034;44.794;20.518;2024-03-22T11:03:16;31.00;27.75;17.25
86389;PMS7003;77034;44.794;20.518;2024-03-22T11:05:48;30.00;24.75;15.00
86389;PMS7003;77034;44.794;20.518;2024-03-22T11:08:36;28.75;26.25;16.25
86389;PMS7003;77034;44.794;20.518;2024-03-22T11:11:11;25.50;22.50;13.50
86389;PMS7003;77034;44.794;20.518;2024-03-22T11:13:38;31.50;24.75;15.00
86389;PMS7003;77034;44.794;20.518;2024-03-22T11:16:04;20.75;18.50;12.00
86389;PMS7003;77034;44.794;20.518;2024-03-22T11:18:30;25.00;23.75;13.75
86389;PMS7003;77034;44.794;20.518;2024-03-22T11:20:56;29.25;26.00;16.00
86389;PMS7003;77034;44.794;20.518;2024-03-22T11:23:22;28.25;24.75;16.50
86389;PMS7003;77034;44.794;20.518;2024-03-22T11:25:48;32.00;29.00;15.25
86389;PMS7003;77034;44.794;20.518;2024-03-22T11:28:13;40.50;33.75;19.25
86389;PMS7003;77034;44.794;20.518;2024-03-22T11:30:39;36.75;28.00;14.50
86389;PMS7003;77034;44.794;20.518;2024-03-22T11:33:05;34.25;27.00;17.50
86389;PMS7003;77034;44.794;20.518;2024-03-22T11:35:31;33.25;29.50;17.75
86389;PMS7003;77034;44.794;20.518;2024-03-22T11:37:58;43.75;32.50;21.00
86389;PMS7003;77034;44.794;20.518;2024-03-22T11:40:25;39.50;32.75;19.00
86389;PMS7003;77034;44.794;20.518;2024-03-22T11:42:52;36.00;31.25;18.25
86389;PMS7003;77034;44.794;20.518;2024-03-22T11:45:20;48.50;36.25;21.00
86389;PMS7003;77034;44.794;20.518;2024-03-22T11:47:47;35.00;31.50;20.00
86389;PMS7003;77034;44.794;20.518;2024-03-22T11:50:13;38.25;33.00;19.00
86389;PMS7003;77034;44.794;20.518;2024-03-22T11:52:43;36.75;30.50;19.50
86389;PMS7003;77034;44.794;20.518;2024-03-22T11:55:12;44.25;34.75;18.00
86389;PMS7003;77034;44.794;20.518;2024-03-22T11:57:39;32.00;31.75;18.25
86389;PMS7003;77034;44.794;20.518;2024-03-22T12:00:04;40.75;34.50;18.75
86389;PMS7003;77034;44.794;20.518;2024-03-22T12:02:35;35.50;30.00;17.50
86389;PMS7003;77034;44.794;20.518;2024-03-22T12:05:01;35.75;30.50;18.25
86389;PMS7003;77034;44.794;20.518;2024-03-22T12:07:28;35.25;31.00;17.75
86389;PMS7003;77034;44.794;20.518;2024-03-22T12:09:54;37.50;30.00;17.50
86389;PMS7003;77034;44.794;20.518;2024-03-22T12:12:21;35.00;29.50;17.25
86389;PMS7003;77034;44.794;20.518;2024-03-22T12:14:47;39.25;31.75;19.75
86389;PMS7003;77034;44.794;20.518;2024-03-22T12:17:13;36.75;29.75;20.25
86389;PMS7003;77034;44.794;20.518;2024-03-22T12:19:39;38.50;32.25;19.25
86389;PMS7003;77034;44.794;20.518;2024-03-22T12:22:05;30.00;28.00;16.25
86389;PMS7003;77034;44.794;20.518;2024-03-22T12:24:32;34.50;28.25;18.75
86389;PMS7003;77034;44.794;20.518;2024-03-22T12:26:58;27.00;21.75;12.25
86389;PMS7003;77034;44.794;20.518;2024-03-22T12:29:23;33.75;28.25;17.00
86389;PMS7003;77034;44.794;20.518;2024-03-22T12:31:49;27.00;23.00;14.50
86389;PMS7003;77034;44.794;20.518;2024-03-22T12:34:15;30.00;28.75;18.50
86389;PMS7003;77034;44.794;20.518;2024-03-22T12:36:41;33.00;30.25;15.50
86389;PMS7003;77034;44.794;20.518;2024-03-22T12:39:07;27.50;27.50;16.50
86389;PMS7003;77034;44.794;20.518;2024-03-22T12:41:33;30.75;26.00;11.75
86389;PMS7003;77034;44.794;20.518;2024-03-22T12:43:59;34.50;28.75;14.75
86389;PMS7003;77034;44.794;20.518;2024-03-22T12:46:25;30.75;27.25;15.00
86389;PMS7003;77034;44.794;20.518;2024-03-22T12:48:52;35.25;30.75;20.00
86389;PMS7003;77034;44.794;20.518;2024-03-22T12:51:19;33.50;29.00;17.75
86389;PMS7003;77034;44.794;20.518;2024-03-22T12:53:45;35.00;28.75;17.75
86389;PMS7003;77034;44.794;20.518;2024-03-22T12:56:11;37.00;28.75;16.25
86389;PMS7003;77034;44.794;20.518;2024-03-22T12:58:37;37.00;32.50;21.00
86389;PMS7003;77034;44.794;20.518;2024-03-22T13:01:04;31.75;26.50;16.75
86389;PMS7003;77034;44.794;20.518;2024-03-22T13:03:31;34.00;31.50;18.50
86389;PMS7003;77034;44.794;20.518;2024-03-22T13:05:57;34.75;29.50;17.00
86389;PMS7003;77034;44.794;20.518;2024-03-22T13:08:23;37.75;28.50;18.00
86389;PMS7003;77034;44.794;20.518;2024-03-22T13:10:49;36.25;31.75;20.50
86389;PMS7003;77034;44.794;20.518;2024-03-22T13:13:15;35.00;29.50;20.00
86389;PMS7003;77034;44.794;20.518;2024-03-22T13:15:44;45.00;33.00;18.50
86389;PMS7003;77034;44.794;20.518;2024-03-22T13:18:12;39.75;31.50;18.00
86389;PMS7003;77034;44.794;20.518;2024-03-22T13:20:37;30.25;26.75;17.50
86389;PMS7003;77034;44.794;20.518;2024-03-22T13:23:03;36.75;32.00;18.25
86389;PMS7003;77034;44.794;20.518;2024-03-22T13:25:30;31.75;27.75;17.50
86389;PMS7003;77034;44.794;20.518;2024-03-22T13:27:55;24.75;21.75;13.25
86389;PMS7003;77034;44.794;20.518;2024-03-22T13:30:21;31.00;26.00;16.25
86389;PMS7003;77034;44.794;20.518;2024-03-22T13:32:47;30.25;26.50;14.75